sensor_id;sensor_type;location;lat;lon;timestamp;P1;durP1;ratioP1;P2;durP2;ratioP2
10191;SDS011;17580;50.850;4.504;2022-08-02T00:02:05;2.33;;;2.13;;
10191;SDS011;17580;50.850;4.504;2022-08-02T00:04:31;3.53;;;2.00;;
10191;SDS011;17580;50.850;4.504;2022-08-02T00:06:58;4.00;;;1.93;;
10191;SDS011;17580;50.850;4.504;2022-08-02T00:09:25;3.37;;;2.13;;
10191;SDS011;17580;50.850;4.504;2022-08-02T00:11:52;1.53;;;1.47;;
10191;SDS011;17580;50.850;4.504;2022-08-02T00:14:20;1.70;;;1.60;;
10191;SDS011;17580;50.850;4.504;2022-08-02T00:16:47;1.67;;;1.57;;
10191;SDS011;17580;50.850;4.504;2022-08-02T00:19:15;3.17;;;2.07;;
10191;SDS011;17580;50.850;4.504;2022-08-02T00:21:42;3.63;;;1.80;;
10191;SDS011;17580;50.850;4.504;2022-08-02T00:24:09;2.77;;;1.90;;
10191;SDS011;17580;50.850;4.504;2022-08-02T00:26:35;1.80;;;1.70;;
10191;SDS011;17580;50.850;4.504;2022-08-02T00:29:02;1.83;;;1.73;;
10191;SDS011;17580;50.850;4.504;2022-08-02T00:31:30;2.20;;;1.50;;
10191;SDS011;17580;50.850;4.504;2022-08-02T00:33:58;2.70;;;1.73;;
10191;SDS011;17580;50.850;4.504;2022-08-02T00:36:29;1.60;;;1.50;;
10191;SDS011;17580;50.850;4.504;2022-08-02T00:38:58;2.10;;;1.83;;
10191;SDS011;17580;50.850;4.504;2022-08-02T00:41:27;2.00;;;1.90;;
10191;SDS011;17580;50.850;4.504;2022-08-02T00:43:54;2.73;;;2.23;;
10191;SDS011;17580;50.850;4.504;2022-08-02T00:46:22;1.80;;;1.70;;
10191;SDS011;17580;50.850;4.504;2022-08-02T00:48:49;2.23;;;1.80;;
10191;SDS011;17580;50.850;4.504;2022-08-02T00:51:16;2.00;;;1.90;;
10191;SDS011;17580;50.850;4.504;2022-08-02T00:53:44;1.97;;;1.87;;
10191;SDS011;17580;50.850;4.504;2022-08-02T00:56:11;2.00;;;1.90;;
10191;SDS011;17580;50.850;4.504;2022-08-02T00:58:38;2.70;;;2.23;;
10191;SDS011;17580;50.850;4.504;2022-08-02T01:01:05;2.00;;;1.90;;
10191;SDS011;17580;50.850;4.504;2022-08-02T01:03:32;2.20;;;2.10;;
10191;SDS011;17580;50.850;4.504;2022-08-02T01:05:59;2.10;;;2.00;;
10191;SDS011;17580;50.850;4.504;2022-08-02T01:08:26;2.07;;;1.97;;
10191;SDS011;17580;50.850;4.504;2022-08-02T01:10:54;3.03;;;2.37;;
10191;SDS011;17580;50.850;4.504;2022-08-02T01:13:21;4.27;;;3.10;;
10191;SDS011;17580;50.850;4.504;2022-08-02T01:15:50;2.73;;;2.00;;
10191;SDS011;17580;50.850;4.504;2022-08-02T01:18:22;2.90;;;2.43;;
10191;SDS011;17580;50.850;4.504;2022-08-02T01:21:12;1.87;;;1.77;;
10191;SDS011;17580;50.850;4.504;2022-08-02T01:24:00;2.17;;;1.97;;
10191;SDS011;17580;50.850;4.504;2022-08-02T01:26:40;1.73;;;1.63;;
10191;SDS011;17580;50.850;4.504;2022-08-02T01:29:15;2.37;;;1.87;;
10191;SDS011;17580;50.850;4.504;2022-08-02T01:31:48;1.90;;;1.80;;
10191;SDS011;17580;50.850;4.504;2022-08-02T01:34:20;1.90;;;1.80;;
10191;SDS011;17580;50.850;4.504;2022-08-02T01:36:55;2.00;;;1.90;;
10191;SDS011;17580;50.850;4.504;2022-08-02T01:39:26;3.07;;;2.27;;
10191;SDS011;17580;50.850;4.504;2022-08-02T01:41:55;1.90;;;1.80;;
10191;SDS011;17580;50.850;4.504;2022-08-02T01:44:30;2.23;;;2.07;;
10191;SDS011;17580;50.850;4.504;2022-08-02T01:47:01;2.10;;;1.67;;
10191;SDS011;17580;50.850;4.504;2022-08-02T01:49:30;2.30;;;2.10;;
10191;SDS011;17580;50.850;4.504;2022-08-02T01:52:00;1.67;;;1.57;;
10191;SDS011;17580;50.850;4.504;2022-08-02T01:54:46;2.67;;;2.47;;
10191;SDS011;17580;50.850;4.504;2022-08-02T01:57:15;2.17;;;2.00;;
10191;SDS011;17580;50.850;4.504;2022-08-02T01:59:45;2.27;;;2.03;;
10191;SDS011;17580;50.850;4.504;2022-08-02T02:02:13;2.77;;;2.23;;
10191;SDS011;17580;50.850;4.504;2022-08-02T02:04:41;2.80;;;2.60;;
10191;SDS011;17580;50.850;4.504;2022-08-02T02:07:11;1.80;;;1.70;;
10191;SDS011;17580;50.850;4.504;2022-08-02T02:09:39;2.00;;;1.90;;
10191;SDS011;17580;50.850;4.504;2022-08-02T02:12:08;3.50;;;2.37;;
10191;SDS011;17580;50.850;4.504;2022-08-02T02:14:37;2.20;;;2.10;;
10191;SDS011;17580;50.850;4.504;2022-08-02T02:17:07;2.40;;;2.30;;
10191;SDS011;17580;50.850;4.504;2022-08-02T02:19:34;2.87;;;2.67;;
10191;SDS011;17580;50.850;4.504;2022-08-02T02:22:02;3.37;;;2.30;;
10191;SDS011;17580;50.850;4.504;2022-08-02T02:24:30;2.40;;;2.20;;
10191;SDS011;17580;50.850;4.504;2022-08-02T02:26:57;3.20;;;2.10;;
10191;SDS011;17580;50.850;4.504;2022-08-02T02:29:27;2.43;;;2.07;;
10191;SDS011;17580;50.850;4.504;2022-08-02T02:31:57;2.50;;;2.30;;
10191;SDS011;17580;50.850;4.504;2022-08-02T02:34:29;2.57;;;2.37;;
10191;SDS011;17580;50.850;4.504;2022-08-02T02:36:59;2.60;;;2.40;;
10191;SDS011;17580;50.850;4.504;2022-08-02T02:39:28;4.57;;;2.50;;
10191;SDS011;17580;50.850;4.504;2022-08-02T02:41:57;2.30;;;2.10;;
10191;SDS011;17580;50.850;4.504;2022-08-02T02:44:28;1.93;;;1.83;;
10191;SDS011;17580;50.850;4.504;2022-08-02T02:46:56;2.50;;;2.40;;
10191;SDS011;17580;50.850;4.504;2022-08-02T02:49:24;2.07;;;1.97;;
10191;SDS011;17580;50.850;4.504;2022-08-02T02:51:54;2.37;;;2.27;;
10191;SDS011;17580;50.850;4.504;2022-08-02T02:54:22;2.23;;;2.00;;
10191;SDS011;17580;50.850;4.504;2022-08-02T02:56:50;2.37;;;2.27;;
10191;SDS011;17580;50.850;4.504;2022-08-02T02:59:19;2.20;;;2.10;;
10191;SDS011;17580;50.850;4.504;2022-08-02T03:01:46;2.03;;;1.93;;
10191;SDS011;17580;50.850;4.504;2022-08-02T03:04:13;2.50;;;2.30;;
10191;SDS011;17580;50.850;4.504;2022-08-02T03:06:40;2.30;;;2.10;;
10191;SDS011;17580;50.850;4.504;2022-08-02T03:09:09;2.57;;;2.47;;
10191;SDS011;17580;50.850;4.504;2022-08-02T03:11:36;2.10;;;2.00;;
10191;SDS011;17580;50.850;4.504;2022-08-02T03:14:04;2.37;;;2.23;;
10191;SDS011;17580;50.850;4.504;2022-08-02T03:16:40;2.83;;;2.50;;
10191;SDS011;17580;50.850;4.504;2022-08-02T03:19:08;2.40;;;2.20;;
10191;SDS011;17580;50.850;4.504;2022-08-02T03:21:35;2.27;;;2.07;;
10191;SDS011;17580;50.850;4.504;2022-08-02T03:24:03;2.37;;;2.17;;
10191;SDS011;17580;50.850;4.504;2022-08-02T03:26:32;2.50;;;2.20;;
10191;SDS011;17580;50.850;4.504;2022-08-02T03:28:59;2.30;;;2.20;;
10191;SDS011;17580;50.850;4.504;2022-08-02T03:31:26;3.43;;;2.10;;
10191;SDS011;17580;50.850;4.504;2022-08-02T03:33:53;2.47;;;2.27;;
10191;SDS011;17580;50.850;4.504;2022-08-02T03:36:21;2.60;;;2.50;;
10191;SDS011;17580;50.850;4.504;2022-08-02T03:38:50;3.23;;;2.80;;
10191;SDS011;17580;50.850;4.504;2022-08-02T03:41:17;2.27;;;2.17;;
10191;SDS011;17580;50.850;4.504;2022-08-02T03:43:48;2.77;;;2.57;;
10191;SDS011;17580;50.850;4.504;2022-08-02T03:46:18;2.80;;;2.60;;
10191;SDS011;17580;50.850;4.504;2022-08-02T03:48:48;2.53;;;2.33;;
10191;SDS011;17580;50.850;4.504;2022-08-02T03:51:16;2.73;;;2.63;;
10191;SDS011;17580;50.850;4.504;2022-08-02T03:53:44;2.60;;;2.50;;
10191;SDS011;17580;50.850;4.504;2022-08-02T03:56:11;2.73;;;2.53;;
10191;SDS011;17580;50.850;4.504;2022-08-02T03:58:38;2.80;;;2.60;;
10191;SDS011;17580;50.850;4.504;2022-08-02T04:01:06;2.70;;;2.60;;
10191;SDS011;17580;50.850;4.504;2022-08-02T04:03:33;2.50;;;2.40;;
10191;SDS011;17580;50.850;4.504;2022-08-02T04:06:00;2.57;;;2.37;;
10191;SDS011;17580;50.850;4.504;2022-08-02T04:08:27;3.47;;;3.13;;
10191;SDS011;17580;50.850;4.504;2022-08-02T04:10:54;2.60;;;2.50;;
10191;SDS011;17580;50.850;4.504;2022-08-02T04:13:38;2.73;;;2.53;;
10191;SDS011;17580;50.850;4.504;2022-08-02T04:16:09;3.23;;;2.90;;
10191;SDS011;17580;50.850;4.504;2022-08-02T04:18:40;2.97;;;2.77;;
10191;SDS011;17580;50.850;4.504;2022-08-02T04:21:12;3.33;;;2.97;;
10191;SDS011;17580;50.850;4.504;2022-08-02T04:23:41;2.80;;;2.60;;
10191;SDS011;17580;50.850;4.504;2022-08-02T04:26:10;3.20;;;3.00;;
10191;SDS011;17580;50.850;4.504;2022-08-02T04:28:38;3.30;;;3.00;;
10191;SDS011;17580;50.850;4.504;2022-08-02T04:31:07;2.97;;;2.77;;
10191;SDS011;17580;50.850;4.504;2022-08-02T04:33:35;4.07;;;2.90;;
10191;SDS011;17580;50.850;4.504;2022-08-02T04:36:04;2.87;;;2.70;;
10191;SDS011;17580;50.850;4.504;2022-08-02T04:38:31;4.83;;;3.30;;
10191;SDS011;17580;50.850;4.504;2022-08-02T04:40:58;4.20;;;2.93;;
10191;SDS011;17580;50.850;4.504;2022-08-02T04:43:25;3.47;;;3.20;;
10191;SDS011;17580;50.850;4.504;2022-08-02T04:45:53;3.03;;;2.67;;
10191;SDS011;17580;50.850;4.504;2022-08-02T04:48:22;2.80;;;2.60;;
10191;SDS011;17580;50.850;4.504;2022-08-02T04:50:49;7.43;;;3.47;;
10191;SDS011;17580;50.850;4.504;2022-08-02T04:53:16;4.60;;;3.23;;
10191;SDS011;17580;50.850;4.504;2022-08-02T04:55:43;6.10;;;3.30;;
10191;SDS011;17580;50.850;4.504;2022-08-02T04:58:10;3.50;;;2.90;;
10191;SDS011;17580;50.850;4.504;2022-08-02T05:00:37;3.17;;;2.87;;
10191;SDS011;17580;50.850;4.504;2022-08-02T05:03:05;3.57;;;2.97;;
10191;SDS011;17580;50.850;4.504;2022-08-02T05:05:33;3.90;;;3.60;;
10191;SDS011;17580;50.850;4.504;2022-08-02T05:08:00;2.90;;;2.70;;
10191;SDS011;17580;50.850;4.504;2022-08-02T05:10:27;3.43;;;3.13;;
10191;SDS011;17580;50.850;4.504;2022-08-02T05:12:54;3.43;;;3.13;;
10191;SDS011;17580;50.850;4.504;2022-08-02T05:15:21;3.50;;;3.20;;
10191;SDS011;17580;50.850;4.504;2022-08-02T05:17:48;4.27;;;3.10;;
10191;SDS011;17580;50.850;4.504;2022-08-02T05:20:15;3.30;;;2.90;;
10191;SDS011;17580;50.850;4.504;2022-08-02T05:22:44;2.80;;;2.60;;
10191;SDS011;17580;50.850;4.504;2022-08-02T05:25:11;2.93;;;2.83;;
10191;SDS011;17580;50.850;4.504;2022-08-02T05:27:39;3.83;;;3.17;;
10191;SDS011;17580;50.850;4.504;2022-08-02T05:30:06;2.80;;;2.60;;
10191;SDS011;17580;50.850;4.504;2022-08-02T05:32:34;3.07;;;2.77;;
10191;SDS011;17580;50.850;4.504;2022-08-02T05:35:07;3.50;;;2.93;;
10191;SDS011;17580;50.850;4.504;2022-08-02T05:37:34;3.13;;;2.90;;
10191;SDS011;17580;50.850;4.504;2022-08-02T05:40:03;3.57;;;3.27;;
10191;SDS011;17580;50.850;4.504;2022-08-02T05:42:31;4.07;;;3.40;;
10191;SDS011;17580;50.850;4.504;2022-08-02T05:44:57;4.20;;;3.90;;
10191;SDS011;17580;50.850;4.504;2022-08-02T05:47:24;4.13;;;3.83;;
10191;SDS011;17580;50.850;4.504;2022-08-02T05:49:51;4.00;;;3.70;;
10191;SDS011;17580;50.850;4.504;2022-08-02T05:52:18;6.17;;;4.10;;
10191;SDS011;17580;50.850;4.504;2022-08-02T05:54:47;6.40;;;4.93;;
10191;SDS011;17580;50.850;4.504;2022-08-02T05:57:25;5.43;;;4.90;;
10191;SDS011;17580;50.850;4.504;2022-08-02T06:00:05;5.70;;;5.20;;
10191;SDS011;17580;50.850;4.504;2022-08-02T06:02:37;6.30;;;5.70;;
10191;SDS011;17580;50.850;4.504;2022-08-02T06:05:24;4.30;;;4.00;;
10191;SDS011;17580;50.850;4.504;2022-08-02T06:07:54;5.27;;;4.77;;
10191;SDS011;17580;50.850;4.504;2022-08-02T06:10:23;4.83;;;4.43;;
10191;SDS011;17580;50.850;4.504;2022-08-02T06:12:55;6.80;;;4.40;;
10191;SDS011;17580;50.850;4.504;2022-08-02T06:15:31;5.77;;;5.27;;
10191;SDS011;17580;50.850;4.504;2022-08-02T06:17:59;7.60;;;6.03;;
10191;SDS011;17580;50.850;4.504;2022-08-02T06:20:26;5.83;;;5.33;;
10191;SDS011;17580;50.850;4.504;2022-08-02T06:22:59;5.80;;;5.40;;
10191;SDS011;17580;50.850;4.504;2022-08-02T06:25:28;6.00;;;5.50;;
10191;SDS011;17580;50.850;4.504;2022-08-02T06:27:57;5.53;;;5.00;;
10191;SDS011;17580;50.850;4.504;2022-08-02T06:30:25;4.97;;;4.50;;
10191;SDS011;17580;50.850;4.504;2022-08-02T06:32:52;5.27;;;4.77;;
10191;SDS011;17580;50.850;4.504;2022-08-02T06:35:20;5.00;;;4.60;;
10191;SDS011;17580;50.850;4.504;2022-08-02T06:37:49;5.57;;;4.20;;
10191;SDS011;17580;50.850;4.504;2022-08-02T06:40:30;5.83;;;3.87;;
10191;SDS011;17580;50.850;4.504;2022-08-02T06:43:11;4.00;;;3.60;;
10191;SDS011;17580;50.850;4.504;2022-08-02T06:45:43;4.27;;;3.80;;
10191;SDS011;17580;50.850;4.504;2022-08-02T06:48:10;3.83;;;3.53;;
10191;SDS011;17580;50.850;4.504;2022-08-02T06:50:37;3.70;;;3.30;;
10191;SDS011;17580;50.850;4.504;2022-08-02T06:53:06;3.30;;;3.10;;
10191;SDS011;17580;50.850;4.504;2022-08-02T06:55:33;2.83;;;2.73;;
10191;SDS011;17580;50.850;4.504;2022-08-02T06:58:00;3.00;;;2.70;;
10191;SDS011;17580;50.850;4.504;2022-08-02T07:00:29;2.63;;;2.40;;
10191;SDS011;17580;50.850;4.504;2022-08-02T07:02:56;2.53;;;2.33;;
10191;SDS011;17580;50.850;4.504;2022-08-02T07:05:24;4.07;;;2.40;;
10191;SDS011;17580;50.850;4.504;2022-08-02T07:07:50;2.10;;;2.00;;
10191;SDS011;17580;50.850;4.504;2022-08-02T07:10:17;1.80;;;1.70;;
10191;SDS011;17580;50.850;4.504;2022-08-02T07:12:44;1.73;;;1.63;;
10191;SDS011;17580;50.850;4.504;2022-08-02T07:15:11;2.83;;;1.87;;
10191;SDS011;17580;50.850;4.504;2022-08-02T07:17:41;2.00;;;1.90;;
10191;SDS011;17580;50.850;4.504;2022-08-02T07:20:08;2.20;;;1.90;;
10191;SDS011;17580;50.850;4.504;2022-08-02T07:22:37;2.10;;;1.90;;
10191;SDS011;17580;50.850;4.504;2022-08-02T07:25:04;1.90;;;1.80;;
10191;SDS011;17580;50.850;4.504;2022-08-02T07:27:32;1.97;;;1.87;;
10191;SDS011;17580;50.850;4.504;2022-08-02T07:29:59;1.77;;;1.67;;
10191;SDS011;17580;50.850;4.504;2022-08-02T07:32:26;2.07;;;1.80;;
10191;SDS011;17580;50.850;4.504;2022-08-02T07:34:58;1.50;;;1.50;;
10191;SDS011;17580;50.850;4.504;2022-08-02T07:37:27;2.00;;;1.77;;
10191;SDS011;17580;50.850;4.504;2022-08-02T07:39:56;3.90;;;1.70;;
10191;SDS011;17580;50.850;4.504;2022-08-02T07:42:23;1.80;;;1.70;;
10191;SDS011;17580;50.850;4.504;2022-08-02T07:44:52;2.07;;;1.90;;
10191;SDS011;17580;50.850;4.504;2022-08-02T07:47:19;1.67;;;1.57;;
10191;SDS011;17580;50.850;4.504;2022-08-02T07:49:46;1.60;;;1.50;;
10191;SDS011;17580;50.850;4.504;2022-08-02T07:52:14;1.70;;;1.60;;
10191;SDS011;17580;50.850;4.504;2022-08-02T07:54:41;2.67;;;1.50;;
10191;SDS011;17580;50.850;4.504;2022-08-02T07:57:08;2.37;;;1.90;;
10191;SDS011;17580;50.850;4.504;2022-08-02T07:59:35;1.70;;;1.70;;
10191;SDS011;17580;50.850;4.504;2022-08-02T08:02:02;1.70;;;1.60;;
10191;SDS011;17580;50.850;4.504;2022-08-02T08:04:29;1.57;;;1.47;;
10191;SDS011;17580;50.850;4.504;2022-08-02T08:06:56;4.93;;;2.03;;
10191;SDS011;17580;50.850;4.504;2022-08-02T08:09:24;2.67;;;1.60;;
10191;SDS011;17580;50.850;4.504;2022-08-02T08:11:51;1.80;;;1.50;;
10191;SDS011;17580;50.850;4.504;2022-08-02T08:14:18;2.33;;;1.53;;
10191;SDS011;17580;50.850;4.504;2022-08-02T08:16:45;2.00;;;1.70;;
10191;SDS011;17580;50.850;4.504;2022-08-02T08:19:12;1.80;;;1.50;;
10191;SDS011;17580;50.850;4.504;2022-08-02T08:21:39;1.30;;;1.30;;
10191;SDS011;17580;50.850;4.504;2022-08-02T08:24:06;1.90;;;1.80;;
10191;SDS011;17580;50.850;4.504;2022-08-02T08:26:34;2.37;;;2.13;;
10191;SDS011;17580;50.850;4.504;2022-08-02T08:29:01;1.63;;;1.53;;
10191;SDS011;17580;50.850;4.504;2022-08-02T08:31:30;1.70;;;1.60;;
10191;SDS011;17580;50.850;4.504;2022-08-02T08:33:57;1.80;;;1.70;;
10191;SDS011;17580;50.850;4.504;2022-08-02T08:36:24;1.60;;;1.60;;
10191;SDS011;17580;50.850;4.504;2022-08-02T08:38:51;3.00;;;1.77;;
10191;SDS011;17580;50.850;4.504;2022-08-02T08:41:18;2.97;;;1.70;;
10191;SDS011;17580;50.850;4.504;2022-08-02T08:43:47;1.87;;;1.70;;
10191;SDS011;17580;50.850;4.504;2022-08-02T08:46:17;1.90;;;1.80;;
10191;SDS011;17580;50.850;4.504;2022-08-02T08:48:49;1.80;;;1.70;;
10191;SDS011;17580;50.850;4.504;2022-08-02T08:51:19;1.47;;;1.40;;
10191;SDS011;17580;50.850;4.504;2022-08-02T08:53:47;1.73;;;1.63;;
10191;SDS011;17580;50.850;4.504;2022-08-02T08:56:14;2.70;;;1.70;;
10191;SDS011;17580;50.850;4.504;2022-08-02T08:58:43;3.93;;;2.00;;
10191;SDS011;17580;50.850;4.504;2022-08-02T09:01:12;2.03;;;1.90;;
10191;SDS011;17580;50.850;4.504;2022-08-02T09:03:41;2.07;;;1.83;;
10191;SDS011;17580;50.850;4.504;2022-08-02T09:06:08;3.60;;;1.97;;
10191;SDS011;17580;50.850;4.504;2022-08-02T09:08:35;2.63;;;2.00;;
10191;SDS011;17580;50.850;4.504;2022-08-02T09:11:02;1.80;;;1.70;;
10191;SDS011;17580;50.850;4.504;2022-08-02T09:13:38;2.43;;;2.17;;
10191;SDS011;17580;50.850;4.504;2022-08-02T09:16:16;1.40;;;1.40;;
10191;SDS011;17580;50.850;4.504;2022-08-02T09:18:53;2.93;;;1.90;;
10191;SDS011;17580;50.850;4.504;2022-08-02T09:21:20;1.53;;;1.43;;
10191;SDS011;17580;50.850;4.504;2022-08-02T09:23:51;1.80;;;1.70;;
10191;SDS011;17580;50.850;4.504;2022-08-02T09:26:20;1.83;;;1.73;;
10191;SDS011;17580;50.850;4.504;2022-08-02T09:28:48;1.80;;;1.70;;
10191;SDS011;17580;50.850;4.504;2022-08-02T09:31:19;4.33;;;2.10;;
10191;SDS011;17580;50.850;4.504;2022-08-02T09:33:50;2.20;;;2.10;;
10191;SDS011;17580;50.850;4.504;2022-08-02T09:36:19;1.53;;;1.43;;
10191;SDS011;17580;50.850;4.504;2022-08-02T09:38:53;1.57;;;1.47;;
10191;SDS011;17580;50.850;4.504;2022-08-02T09:41:22;5.40;;;1.93;;
10191;SDS011;17580;50.850;4.504;2022-08-02T09:43:54;1.97;;;1.87;;
10191;SDS011;17580;50.850;4.504;2022-08-02T09:46:24;1.57;;;1.40;;
10191;SDS011;17580;50.850;4.504;2022-08-02T09:48:52;2.00;;;1.60;;
10191;SDS011;17580;50.850;4.504;2022-08-02T09:51:21;1.43;;;1.43;;
10191;SDS011;17580;50.850;4.504;2022-08-02T09:53:49;2.07;;;1.90;;
10191;SDS011;17580;50.850;4.504;2022-08-02T09:56:17;2.93;;;1.73;;
10191;SDS011;17580;50.850;4.504;2022-08-02T09:58:45;1.23;;;1.23;;
10191;SDS011;17580;50.850;4.504;2022-08-02T10:01:12;1.50;;;1.40;;
10191;SDS011;17580;50.850;4.504;2022-08-02T10:03:56;1.43;;;1.33;;
10191;SDS011;17580;50.850;4.504;2022-08-02T10:06:25;1.63;;;1.43;;
10191;SDS011;17580;50.850;4.504;2022-08-02T10:08:52;1.80;;;1.70;;
10191;SDS011;17580;50.850;4.504;2022-08-02T10:11:20;3.03;;;1.93;;
10191;SDS011;17580;50.850;4.504;2022-08-02T10:13:48;1.65;;;1.50;;
10191;SDS011;17580;50.850;4.504;2022-08-02T10:16:17;1.85;;;1.75;;
10191;SDS011;17580;50.850;4.504;2022-08-02T10:18:47;1.88;;;1.67;;
10191;SDS011;17580;50.850;4.504;2022-08-02T10:21:17;1.80;;;1.70;;
10191;SDS011;17580;50.850;4.504;2022-08-02T10:23:46;1.77;;;1.60;;
10191;SDS011;17580;50.850;4.504;2022-08-02T10:26:15;2.05;;;1.55;;
10191;SDS011;17580;50.850;4.504;2022-08-02T10:28:44;4.65;;;1.65;;
10191;SDS011;17580;50.850;4.504;2022-08-02T10:31:13;2.22;;;1.55;;
10191;SDS011;17580;50.850;4.504;2022-08-02T10:33:44;2.65;;;1.90;;
10191;SDS011;17580;50.850;4.504;2022-08-02T10:36:15;1.90;;;1.80;;
10191;SDS011;17580;50.850;4.504;2022-08-02T10:38:44;1.50;;;1.50;;
10191;SDS011;17580;50.850;4.504;2022-08-02T10:41:11;1.55;;;1.45;;
10191;SDS011;17580;50.850;4.504;2022-08-02T10:43:39;1.60;;;1.50;;
10191;SDS011;17580;50.850;4.504;2022-08-02T10:46:27;1.57;;;1.47;;
10191;SDS011;17580;50.850;4.504;2022-08-02T10:49:07;1.80;;;1.70;;
10191;SDS011;17580;50.850;4.504;2022-08-02T10:54:39;3.63;;;1.80;;
10191;SDS011;17580;50.850;4.504;2022-08-02T10:57:14;3.70;;;1.40;;
10191;SDS011;17580;50.850;4.504;2022-08-02T10:59:43;1.67;;;1.57;;
10191;SDS011;17580;50.850;4.504;2022-08-02T11:02:11;5.83;;;1.53;;
10191;SDS011;17580;50.850;4.504;2022-08-02T11:07:34;2.20;;;1.70;;
10191;SDS011;17580;50.850;4.504;2022-08-02T11:13:02;3.20;;;1.70;;
10191;SDS011;17580;50.850;4.504;2022-08-02T11:15:46;1.63;;;1.47;;
10191;SDS011;17580;50.850;4.504;2022-08-02T11:21:26;2.77;;;1.53;;
10191;SDS011;17580;50.850;4.504;2022-08-02T11:23:55;1.50;;;1.40;;
10191;SDS011;17580;50.850;4.504;2022-08-02T11:26:46;3.80;;;1.65;;
10191;SDS011;17580;50.850;4.504;2022-08-02T11:29:13;1.58;;;1.50;;
10191;SDS011;17580;50.850;4.504;2022-08-02T11:31:41;2.20;;;1.90;;
10191;SDS011;17580;50.850;4.504;2022-08-02T11:34:09;8.15;;;2.10;;
10191;SDS011;17580;50.850;4.504;2022-08-02T11:36:43;4.55;;;1.58;;
10191;SDS011;17580;50.850;4.504;2022-08-02T11:39:15;5.40;;;1.48;;
10191;SDS011;17580;50.850;4.504;2022-08-02T11:41:48;1.42;;;1.40;;
10191;SDS011;17580;50.850;4.504;2022-08-02T11:44:16;1.20;;;1.20;;
10191;SDS011;17580;50.850;4.504;2022-08-02T11:46:43;2.25;;;1.63;;
10191;SDS011;17580;50.850;4.504;2022-08-02T11:49:11;3.75;;;2.30;;
10191;SDS011;17580;50.850;4.504;2022-08-02T11:51:49;3.90;;;1.40;;
10191;SDS011;17580;50.850;4.504;2022-08-02T11:54:21;3.80;;;1.25;;
10191;SDS011;17580;50.850;4.504;2022-08-02T11:56:52;1.70;;;1.40;;
10191;SDS011;17580;50.850;4.504;2022-08-02T11:59:19;1.98;;;1.65;;
10191;SDS011;17580;50.850;4.504;2022-08-02T12:01:46;2.85;;;1.42;;
10191;SDS011;17580;50.850;4.504;2022-08-02T12:04:17;1.77;;;1.63;;
10191;SDS011;17580;50.850;4.504;2022-08-02T12:06:54;1.83;;;1.70;;
10191;SDS011;17580;50.850;4.504;2022-08-02T12:09:22;1.48;;;1.40;;
10191;SDS011;17580;50.850;4.504;2022-08-02T12:11:53;1.23;;;1.20;;
10191;SDS011;17580;50.850;4.504;2022-08-02T12:14:20;1.58;;;1.58;;
10191;SDS011;17580;50.850;4.504;2022-08-02T12:16:48;2.13;;;1.60;;
10191;SDS011;17580;50.850;4.504;2022-08-02T12:19:33;2.05;;;1.65;;
10191;SDS011;17580;50.850;4.504;2022-08-02T12:22:05;7.38;;;1.40;;
10191;SDS011;17580;50.850;4.504;2022-08-02T12:24:33;1.60;;;1.40;;
10191;SDS011;17580;50.850;4.504;2022-08-02T12:27:02;1.52;;;1.42;;
10191;SDS011;17580;50.850;4.504;2022-08-02T12:29:31;1.52;;;1.42;;
10191;SDS011;17580;50.850;4.504;2022-08-02T12:31:59;2.58;;;1.80;;
10191;SDS011;17580;50.850;4.504;2022-08-02T12:34:27;1.58;;;1.40;;
10191;SDS011;17580;50.850;4.504;2022-08-02T12:36:59;1.50;;;1.40;;
10191;SDS011;17580;50.850;4.504;2022-08-02T12:39:34;1.42;;;1.33;;
10191;SDS011;17580;50.850;4.504;2022-08-02T12:42:04;1.65;;;1.55;;
10191;SDS011;17580;50.850;4.504;2022-08-02T12:44:32;2.95;;;1.92;;
10191;SDS011;17580;50.850;4.504;2022-08-02T12:47:02;1.40;;;1.40;;
10191;SDS011;17580;50.850;4.504;2022-08-02T12:49:33;1.65;;;1.55;;
10191;SDS011;17580;50.850;4.504;2022-08-02T12:52:00;3.00;;;1.33;;
10191;SDS011;17580;50.850;4.504;2022-08-02T12:54:28;1.33;;;1.33;;
10191;SDS011;17580;50.850;4.504;2022-08-02T12:56:57;2.92;;;1.42;;
10191;SDS011;17580;50.850;4.504;2022-08-02T12:59:37;1.50;;;1.40;;
10191;SDS011;17580;50.850;4.504;2022-08-02T13:02:06;1.55;;;1.45;;
10191;SDS011;17580;50.850;4.504;2022-08-02T13:04:35;1.38;;;1.25;;
10191;SDS011;17580;50.850;4.504;2022-08-02T13:07:02;1.60;;;1.50;;
10191;SDS011;17580;50.850;4.504;2022-08-02T13:09:34;1.38;;;1.35;;
10191;SDS011;17580;50.850;4.504;2022-08-02T13:12:01;1.25;;;1.25;;
10191;SDS011;17580;50.850;4.504;2022-08-02T13:14:30;1.70;;;1.50;;
10191;SDS011;17580;50.850;4.504;2022-08-02T13:16:57;3.00;;;1.45;;
10191;SDS011;17580;50.850;4.504;2022-08-02T13:19:24;1.65;;;1.55;;
10191;SDS011;17580;50.850;4.504;2022-08-02T13:21:52;1.10;;;1.10;;
10191;SDS011;17580;50.850;4.504;2022-08-02T13:24:19;1.20;;;1.20;;
10191;SDS011;17580;50.850;4.504;2022-08-02T13:26:46;1.33;;;1.20;;
10191;SDS011;17580;50.850;4.504;2022-08-02T13:29:13;1.20;;;1.20;;
10191;SDS011;17580;50.850;4.504;2022-08-02T13:31:41;2.35;;;1.40;;
10191;SDS011;17580;50.850;4.504;2022-08-02T13:34:08;2.22;;;1.52;;
10191;SDS011;17580;50.850;4.504;2022-08-02T13:36:35;1.95;;;1.30;;
10191;SDS011;17580;50.850;4.504;2022-08-02T13:39:02;2.33;;;1.40;;
10191;SDS011;17580;50.850;4.504;2022-08-02T13:41:30;1.90;;;1.45;;
10191;SDS011;17580;50.850;4.504;2022-08-02T13:43:57;1.30;;;1.30;;
10191;SDS011;17580;50.850;4.504;2022-08-02T13:46:24;1.23;;;1.17;;
10191;SDS011;17580;50.850;4.504;2022-08-02T13:48:52;1.65;;;1.50;;
10191;SDS011;17580;50.850;4.504;2022-08-02T13:51:19;1.40;;;1.30;;
10191;SDS011;17580;50.850;4.504;2022-08-02T13:53:46;2.50;;;1.30;;
10191;SDS011;17580;50.850;4.504;2022-08-02T13:56:13;1.70;;;1.60;;
10191;SDS011;17580;50.850;4.504;2022-08-02T13:58:40;1.63;;;1.27;;
10191;SDS011;17580;50.850;4.504;2022-08-02T14:01:07;3.25;;;1.17;;
10191;SDS011;17580;50.850;4.504;2022-08-02T14:03:34;1.73;;;1.25;;
10191;SDS011;17580;50.850;4.504;2022-08-02T14:06:02;5.20;;;1.50;;
10191;SDS011;17580;50.850;4.504;2022-08-02T14:08:31;1.57;;;1.47;;
10191;SDS011;17580;50.850;4.504;2022-08-02T14:10:58;1.10;;;1.10;;
10191;SDS011;17580;50.850;4.504;2022-08-02T14:13:25;1.48;;;1.35;;
10191;SDS011;17580;50.850;4.504;2022-08-02T14:15:52;1.40;;;1.38;;
10191;SDS011;17580;50.850;4.504;2022-08-02T14:18:18;1.57;;;1.47;;
10191;SDS011;17580;50.850;4.504;2022-08-02T14:20:45;1.83;;;1.40;;
10191;SDS011;17580;50.850;4.504;2022-08-02T14:23:13;1.50;;;1.40;;
10191;SDS011;17580;50.850;4.504;2022-08-02T14:25:40;2.10;;;1.37;;
10191;SDS011;17580;50.850;4.504;2022-08-02T14:28:07;2.72;;;1.50;;
10191;SDS011;17580;50.850;4.504;2022-08-02T14:30:34;2.42;;;1.45;;
10191;SDS011;17580;50.850;4.504;2022-08-02T14:33:01;1.53;;;1.43;;
10191;SDS011;17580;50.850;4.504;2022-08-02T14:35:30;2.80;;;1.40;;
10191;SDS011;17580;50.850;4.504;2022-08-02T14:37:57;1.60;;;1.50;;
10191;SDS011;17580;50.850;4.504;2022-08-02T14:40:25;1.10;;;1.03;;
10191;SDS011;17580;50.850;4.504;2022-08-02T14:42:52;1.35;;;1.25;;
10191;SDS011;17580;50.850;4.504;2022-08-02T14:45:19;1.60;;;1.40;;
10191;SDS011;17580;50.850;4.504;2022-08-02T14:47:48;2.17;;;1.30;;
10191;SDS011;17580;50.850;4.504;2022-08-02T14:50:15;1.50;;;1.40;;
10191;SDS011;17580;50.850;4.504;2022-08-02T14:52:43;1.20;;;1.17;;
10191;SDS011;17580;50.850;4.504;2022-08-02T14:55:10;2.73;;;1.40;;
10191;SDS011;17580;50.850;4.504;2022-08-02T14:57:38;1.77;;;1.47;;
10191;SDS011;17580;50.850;4.504;2022-08-02T15:00:05;1.20;;;1.10;;
10191;SDS011;17580;50.850;4.504;2022-08-02T15:02:33;1.97;;;1.20;;
10191;SDS011;17580;50.850;4.504;2022-08-02T15:05:01;3.17;;;1.20;;
10191;SDS011;17580;50.850;4.504;2022-08-02T15:07:28;1.03;;;1.00;;
10191;SDS011;17580;50.850;4.504;2022-08-02T15:09:55;3.93;;;1.43;;
10191;SDS011;17580;50.850;4.504;2022-08-02T15:12:22;4.03;;;1.83;;